North Bay Airport
CYYB : now visible

Aeroporto :











RITROVATECI SU...

 
LOGIN :

Iscrizione | Disclaimer

   EN    FR    IT 

 









Sommario :    VFR   VFR Marginale   IFR   IFR Intensivo   IFR Molto Intensivo
Visibilità : 
Base nubi : 
>= 8 km
>= 3000ft
5 / 8 km
1000 / 3000 ft
1500m / 5 km
500 / 1000 ft
800 / 1500m
200 / 500 ft
< 800m
< 200 ft
Simboli :   Temporali  Nebbia  Neve Forte  Precipitazioni Forti  Vento > 20 kt






- Altitudine del aeroporto : 1215 ft
- Codice IATA : YYB


CYYB - North Bay

ULTIMO METAR :
  • 181900Z 09022G28KT 1/2SM R08/3500FT/U SN DRSN VV010 M13/M16 A2979 RMK SN8 OCNL BLSN PRESFR SLP122

METARs OBSOLETI :
  • 181831Z 10021KT 1/2SM R08/3500V5000FT/D SN DRSN VV010 M14/M16 A2985 RMK SN8 PRESFR SLP143
  • 181800Z 10020G25KT 3/4SM R08/5000VP6000FT/D -SN DRSN VV015 M14/M16 A2990 RMK SN8 PRESFR SLP160
  • 181745Z 09020G26KT 1SM R08/5500VP6000FT/N -SN DRSN VV017 M14/M17 A2993 RMK SN8 VIS VRB 3/4-11/4 PRESFR SLP169
  • 181719Z 11018KT 2SM -SN DRSN OVC031 M14/M18 A2997 RMK SN2SC6 PRESFR SLP186
  • 181700Z 10019G25KT 8SM DRSN OVC055 M14/M18 A2999 RMK SC8 PRESFR SLP192

TAF TAF CYYB
Valido dal 18 a 14 ore il 19 a 02 ore UTC


181340Z 1814/1902 10012G22KT P6SM SCT020 OVC080
TEMPO 1814/1816 BKN020 OVC080
FM181600 09012G22KT 6SM -SN OVC025
TEMPO 1816/1818 3/4SM -SN VV008
FM181800 08012G22KT 1/2SM SN VV006
TEMPO 1818/1901 2SM -SN OVC010
FM190100 08015G25KT 3/4SM -SN VV008 RMK NXT FCST BY 182000Z



MetMap, La meteo Aeronautica in un colpo d'occhio ! - Copyright ORBIFLY Dicembre 2007 - Disclaimer

ORBIFLY MET'MAP TEAM :

Programmazione e sviluppo : Alexandra Zaïnal
Concezione : Baudouin d'Aumeries
Aiuto per la programmazione : Marc-Olivier Méhu
Supporto tecnico e logistico : Manuel Goepfert
Aiuto per la traduzione : Arnaldo La Scala

Contatto : metmap@orbifly.com




FONTI E CREDITI :

   NOAA       Earth
Advisory